Time;durP1;ratioP1;P1;durP2;ratioP2;P2;SDS_P1;SDS_P2;PMS_P1;PMS_P2;Temp;Humidity;BMP_temperature;BMP_pressure;BME280_temperature;BME280_humidity;BME280_pressure;Samples;Min_cycle;Max_cycle;Signal;HPM_P1;HPM_P2
2023/01/03 00:00:10;;;;;;;12.57;7.10;;;5.90;99.90;;;;;;5055286;28;20402;-61
2023/01/03 00:02:36;;;;;;;14.93;9.85;;;6.10;99.90;;;;;;5054351;28;20442;-61
2023/01/03 00:05:02;;;;;;;14.77;8.52;;;6.00;99.90;;;;;;5055117;28;20067;-61
2023/01/03 00:07:34;;;;;;;10.35;6.85;;;6.00;99.90;;;;;;5055383;28;20067;-61
2023/01/03 00:10:05;;;;;;;16.13;7.60;;;6.00;99.90;;;;;;5054798;28;20498;-62
2023/01/03 00:12:31;;;;;;;14.00;8.25;;;5.90;99.90;;;;;;5055226;28;20017;-61
2023/01/03 00:14:58;;;;;;;13.43;6.90;;;6.10;99.90;;;;;;5055007;28;20466;-61
2023/01/03 00:17:25;;;;;;;10.15;8.48;;;5.80;99.90;;;;;;5054779;28;20055;-61
2023/01/03 00:19:51;;;;;;;12.23;9.43;;;5.80;99.90;;;;;;5055030;28;20100;-61
2023/01/03 00:22:17;;;;;;;13.88;8.77;;;5.60;99.90;;;;;;5055208;28;20104;-61
2023/01/03 00:24:44;;;;;;;17.90;12.40;;;5.50;99.90;;;;;;5054311;28;20033;-62
2023/01/03 00:27:11;;;;;;;14.55;11.00;;;5.50;99.90;;;;;;5054839;28;20474;-61
2023/01/03 00:29:37;;;;;;;15.10;8.88;;;5.30;99.90;;;;;;5054806;28;20075;-62
2023/01/03 00:32:04;;;;;;;15.07;9.25;;;5.30;99.90;;;;;;5054756;28;20444;-62
2023/01/03 00:34:29;;;;;;;14.98;9.60;;;5.20;99.90;;;;;;5054848;28;20412;-61
2023/01/03 00:36:56;;;;;;;10.68;8.63;;;5.30;99.90;;;;;;5054902;28;20108;-61
2023/01/03 00:39:22;;;;;;;13.82;8.27;;;5.20;99.90;;;;;;5054220;28;20925;-61
2023/01/03 00:41:48;;;;;;;15.82;12.63;;;5.20;99.90;;;;;;5054493;28;20401;-61
2023/01/03 00:44:14;;;;;;;20.80;16.02;;;5.20;99.90;;;;;;5054433;28;20025;-61
2023/01/03 00:46:41;;;;;;;13.13;9.57;;;5.10;99.90;;;;;;5054526;28;20037;-61
2023/01/03 00:49:07;;;;;;;10.85;6.90;;;5.00;99.90;;;;;;5054525;28;20531;-61
2023/01/03 00:51:34;;;;;;;10.02;5.38;;;4.80;99.90;;;;;;5054695;28;20096;-61
2023/01/03 00:54:01;;;;;;;9.23;7.57;;;4.60;99.90;;;;;;5054121;28;20017;-61
2023/01/03 00:56:33;;;;;;;12.75;5.18;;;4.70;99.90;;;;;;5054315;28;20025;-61
2023/01/03 00:58:59;;;;;;;9.85;2.92;;;4.60;99.90;;;;;;5054306;28;20035;-61
2023/01/03 01:01:29;;;;;;;12.68;6.40;;;4.50;99.90;;;;;;5053901;28;20147;-61
2023/01/03 01:04:04;;;;;;;10.93;6.65;;;4.40;99.90;;;;;;5054530;28;20397;-61
2023/01/03 01:06:33;;;;;;;13.30;6.95;;;4.50;99.90;;;;;;5054049;28;20048;-61
2023/01/03 01:09:01;;;;;;;10.45;6.10;;;4.50;99.90;;;;;;5053589;28;20029;-61
2023/01/03 01:11:29;;;;;;;12.30;6.68;;;4.40;99.90;;;;;;5054223;28;20041;-61
2023/01/03 01:13:55;;;;;;;10.65;6.15;;;4.50;99.90;;;;;;5053986;28;20021;-61
2023/01/03 01:16:29;;;;;;;14.68;8.68;;;4.50;99.90;;;;;;5053753;28;20036;-61
2023/01/03 01:18:58;;;;;;;11.30;8.32;;;4.50;99.90;;;;;;5053762;28;20047;-61
2023/01/03 01:21:29;;;;;;;9.52;6.65;;;4.30;99.90;;;;;;5053748;28;20021;-61
2023/01/03 01:23:55;;;;;;;7.97;5.90;;;4.40;99.90;;;;;;5053393;28;20029;-61
2023/01/03 01:26:22;;;;;;;8.32;4.80;;;4.30;99.90;;;;;;5053584;28;20041;-61
2023/01/03 01:28:50;;;;;;;12.48;5.20;;;4.20;99.90;;;;;;5053635;28;20021;-61
2023/01/03 01:31:18;;;;;;;16.65;5.75;;;4.10;99.90;;;;;;5053812;28;20051;-61
2023/01/03 01:33:44;;;;;;;9.98;5.80;;;4.20;99.90;;;;;;5053548;28;20024;-61
2023/01/03 01:36:18;;;;;;;9.15;6.47;;;4.20;99.90;;;;;;5053388;28;20040;-61
2023/01/03 01:38:46;;;;;;;10.23;6.18;;;4.00;99.90;;;;;;5053467;28;20021;-61
2023/01/03 01:44:36;;;;;;;10.30;5.68;;;4.00;99.90;;;;;;5053343;28;20100;-61
2023/01/03 01:46:50;;;;;;;11.48;5.50;;;4.10;99.90;;;;;;5053498;28;20513;-61
2023/01/03 01:49:24;;;;;;;11.40;4.30;;;4.10;99.90;;;;;;5052994;28;20017;-61
2023/01/03 01:51:50;;;;;;;7.18;3.72;;;3.90;99.90;;;;;;5053312;28;20366;-61
2023/01/03 01:54:18;;;;;;;9.40;3.80;;;3.80;99.90;;;;;;5053074;28;20031;-61
2023/01/03 01:56:47;;;;;;;8.18;4.05;;;3.90;99.90;;;;;;5053087;28;20024;-61
2023/01/03 01:59:14;;;;;;;7.85;3.53;;;3.80;99.90;;;;;;5053098;28;20032;-61
2023/01/03 02:01:43;;;;;;;8.20;3.20;;;4.00;99.90;;;;;;5053594;28;20036;-61
2023/01/03 02:04:31;;;;;;;10.13;3.10;;;3.70;99.90;;;;;;5052772;28;20029;-61
2023/01/03 02:06:57;;;;;;;5.95;3.40;;;3.70;99.90;;;;;;5052531;28;20041;-61
2023/01/03 02:09:23;;;;;;;8.25;3.10;;;3.60;99.90;;;;;;5052480;28;20056;-61
2023/01/03 02:15:12;;;;;;;6.35;2.72;;;3.70;99.90;;;;;;5052967;28;20044;-61
2023/01/03 02:18:05;;;;;;;6.35;2.72;;;3.80;99.90;;;;;;5052700;28;20032;-61
2023/01/03 02:20:43;;;;;;;7.93;2.88;;;3.70;99.90;;;;;;5052788;28;20102;-61
2023/01/03 02:23:26;;;;;;;5.40;3.03;;;3.60;99.90;;;;;;5052668;28;20028;-61
2023/01/03 02:26:07;;;;;;;5.38;2.58;;;3.30;99.90;;;;;;5052474;28;20033;-61
2023/01/03 02:28:56;;;;;;;5.63;2.40;;;3.30;99.90;;;;;;5052671;28;20021;-61
2023/01/03 02:31:45;;;;;;;7.97;2.30;;;3.30;99.90;;;;;;5052753;28;20079;-61
2023/01/03 02:34:32;;;;;;;7.15;2.17;;;3.40;99.90;;;;;;5049258;28;20460;-61
2023/01/03 02:37:19;;;;;;;8.35;2.15;;;3.50;99.90;;;;;;5052022;28;20033;-61
2023/01/03 02:40:00;;;;;;;7.60;2.13;;;3.60;99.90;;;;;;5052234;28;20029;-60
2023/01/03 02:43:00;;;;;;;6.15;2.20;;;3.70;99.90;;;;;;5052369;28;20117;-61
2023/01/03 02:45:45;;;;;;;4.55;2.17;;;3.50;99.90;;;;;;5052136;28;20040;-61
2023/01/03 02:48:26;;;;;;;5.40;2.35;;;3.40;99.90;;;;;;5052432;28;20127;-61
2023/01/03 02:50:56;;;;;;;4.93;2.08;;;3.30;99.90;;;;;;5050837;28;20060;-61
2023/01/03 02:53:34;;;;;;;7.63;2.83;;;3.20;99.90;;;;;;5052123;28;20029;-61
2023/01/03 02:56:06;;;;;;;10.77;2.78;;;3.20;99.90;;;;;;5052680;28;20020;-60
2023/01/03 02:58:35;;;;;;;7.82;2.70;;;3.30;99.90;;;;;;5052126;28;20024;-61
2023/01/03 03:01:02;;;;;;;4.68;2.88;;;3.20;99.90;;;;;;5052038;28;20114;-60
2023/01/03 03:03:36;;;;;;;8.20;3.35;;;3.00;99.90;;;;;;5051893;28;20017;-60
2023/01/03 03:06:18;;;;;;;10.10;4.13;;;3.00;99.90;;;;;;5051389;28;20120;-61
2023/01/03 03:08:45;;;;;;;8.20;3.30;;;3.00;99.90;;;;;;5052032;28;20028;-60
2023/01/03 03:14:21;;;;;;;5.78;2.17;;;3.00;99.90;;;;;;5052126;28;20579;-61
2023/01/03 03:16:50;;;;;;;5.88;2.15;;;3.10;99.90;;;;;;5051747;28;20366;-61
2023/01/03 03:24:48;;;;;;;6.07;2.00;;;3.10;99.90;;;;;;5051371;28;20021;-61
2023/01/03 03:24:59;;;;;;;8.15;2.80;;;3.00;99.90;;;;;;5054880;28;20035;-61
2023/01/03 03:30:14;;;;;;;3.35;2.20;;;2.70;99.90;;;;;;5055938;28;20079;-60
2023/01/03 03:32:44;;;;;;;4.88;2.08;;;2.70;99.90;;;;;;5056018;28;20021;-61
2023/01/03 03:35:13;;;;;;;7.10;2.30;;;2.60;99.90;;;;;;5055400;28;20043;-61
2023/01/03 03:37:41;;;;;;;7.85;2.40;;;2.80;99.90;;;;;;5055704;28;20024;-61
2023/01/03 03:46:31;;;;;;;7.97;2.10;;;2.50;99.90;;;;;;5053318;28;20052;-61
2023/01/03 03:51:47;;;;;;;8.65;2.13;;;2.70;99.90;;;;;;5053462;28;20443;-60
2023/01/03 03:54:17;;;;;;;5.75;2.17;;;2.80;99.90;;;;;;5053063;28;20112;-61
2023/01/03 03:56:47;;;;;;;6.00;2.45;;;2.70;99.90;;;;;;5053054;28;20029;-61
2023/01/03 03:59:16;;;;;;;5.88;2.53;;;2.60;99.90;;;;;;5053433;28;20083;-61
2023/01/03 04:01:43;;;;;;;5.05;2.65;;;2.50;99.90;;;;;;5053011;28;20032;-61
2023/01/03 04:04:17;;;;;;;7.05;2.75;;;2.60;99.90;;;;;;5052629;28;20024;-61
2023/01/03 04:06:48;;;;;;;7.35;2.50;;;2.70;99.90;;;;;;5052828;28;20083;-61
2023/01/03 04:09:14;;;;;;;9.57;2.47;;;2.80;99.90;;;;;;5052672;28;20067;-61
2023/01/03 04:11:40;;;;;;;6.63;2.10;;;2.50;99.90;;;;;;5053328;28;20124;-61
2023/01/03 04:14:06;;;;;;;4.82;2.20;;;2.20;99.90;;;;;;5052770;28;20116;-60
2023/01/03 04:16:32;;;;;;;4.63;2.30;;;2.10;99.90;;;;;;5052628;28;20524;-63
2023/01/03 04:18:58;;;;;;;6.18;2.10;;;2.10;99.90;;;;;;5054439;28;20067;-61
2023/01/03 04:21:23;;;;;;;5.00;2.20;;;2.10;99.90;;;;;;5054929;28;20025;-61
2023/01/03 04:23:49;;;;;;;6.95;2.22;;;2.20;99.90;;;;;;5054974;28;20040;-60
2023/01/03 04:26:16;;;;;;;5.45;2.58;;;2.00;99.90;;;;;;5054786;28;20033;-60
2023/01/03 04:28:42;;;;;;;8.07;2.50;;;2.10;99.90;;;;;;5054942;28;20393;-60
2023/01/03 04:31:08;;;;;;;7.00;2.60;;;2.10;99.90;;;;;;5054264;28;20025;-60
2023/01/03 04:33:34;;;;;;;5.90;2.38;;;2.10;99.90;;;;;;5055019;28;20029;-61
2023/01/03 04:35:59;;;;;;;6.53;2.35;;;2.00;99.90;;;;;;5053954;28;20048;-60
2023/01/03 04:38:25;;;;;;;8.07;2.53;;;2.00;99.90;;;;;;5054730;28;20028;-60
2023/01/03 04:40:51;;;;;;;9.20;2.30;;;2.10;99.90;;;;;;5053222;28;20152;-61
2023/01/03 04:46:00;;;;;;;;;;;2.00;99.90;;;;;;5054619;28;20463;-61
2023/01/03 04:48:26;;;;;;;6.97;2.28;;;2.00;99.90;;;;;;5054558;28;19999;-61
2023/01/03 04:50:59;;;;;;;6.80;2.10;;;2.00;99.90;;;;;;5054794;28;20095;-61
2023/01/03 04:53:26;;;;;;;4.82;2.20;;;2.10;99.90;;;;;;5054227;28;20039;-60
2023/01/03 04:55:53;;;;;;;7.35;2.50;;;2.20;99.90;;;;;;5054579;28;20029;-61
2023/01/03 04:58:19;;;;;;;8.48;3.25;;;2.10;99.90;;;;;;5054338;28;20492;-61
2023/01/03 05:00:45;;;;;;;9.93;3.90;;;2.20;99.90;;;;;;5053944;28;20041;-60
2023/01/03 05:03:11;;;;;;;12.48;4.15;;;2.20;99.90;;;;;;5054229;28;20048;-60
2023/01/03 05:05:37;;;;;;;9.32;3.10;;;2.00;99.90;;;;;;5054234;28;20495;-61
2023/01/03 05:08:06;;;;;;;9.55;3.30;;;1.90;99.90;;;;;;5054227;28;20393;-60
2023/01/03 05:10:32;;;;;;;8.80;3.00;;;1.80;99.90;;;;;;5053899;28;20041;-61
2023/01/03 05:12:59;;;;;;;12.00;4.07;;;1.80;99.90;;;;;;5053956;28;20167;-60
2023/01/03 05:15:29;;;;;;;11.52;3.60;;;2.10;99.90;;;;;;5053520;28;20536;-61
2023/01/03 05:17:54;;;;;;;5.85;2.88;;;2.30;99.90;;;;;;5054351;28;20017;-61
2023/01/03 05:25:50;;;;;;;5.40;1.88;;;2.30;99.90;;;;;;5053693;28;20064;-61
2023/01/03 05:28:21;;;;;;;7.95;1.98;;;2.30;99.90;;;;;;5053534;28;20017;-60
2023/01/03 05:30:47;;;;;;;7.45;2.00;;;2.20;99.90;;;;;;5053623;28;20430;-60
2023/01/03 05:33:13;;;;;;;10.65;7.22;;;2.00;99.90;;;;;;5053708;28;20067;-61
2023/01/03 05:35:38;;;;;;;18.77;11.45;;;1.90;99.90;;;;;;5052453;28;20036;-60
2023/01/03 05:38:04;;;;;;;53.97;35.58;;;1.80;99.90;;;;;;5053482;28;20029;-60
2023/01/03 05:40:30;;;;;;;82.75;56.05;;;1.70;99.90;;;;;;5053990;28;20454;-60
2023/01/03 05:42:56;;;;;;;201.68;132.02;;;2.00;99.90;;;;;;5053225;28;20025;-60
2023/01/03 05:45:24;;;;;;;103.25;66.15;;;2.00;99.90;;;;;;5052926;28;20103;-61
2023/01/03 05:47:51;;;;;;;326.17;203.23;;;2.10;99.90;;;;;;5052318;28;20496;-61
2023/01/03 05:50:17;;;;;;;248.30;159.30;;;2.10;99.90;;;;;;5053285;28;20044;-60
2023/01/03 05:52:43;;;;;;;271.00;171.38;;;1.90;99.90;;;;;;5053195;28;20024;-60
2023/01/03 05:55:09;;;;;;;217.38;135.07;;;1.90;99.90;;;;;;5053112;28;20033;-60
2023/01/03 05:57:34;;;;;;;86.03;52.70;;;1.70;99.90;;;;;;5053436;28;20092;-60
2023/01/03 06:00:00;;;;;;;41.00;23.30;;;1.80;99.90;;;;;;5052720;28;20446;-60
2023/01/03 06:02:27;;;;;;;22.38;12.73;;;1.80;99.90;;;;;;5053145;28;20143;-60
2023/01/03 06:04:53;;;;;;;31.33;17.92;;;1.80;99.90;;;;;;5052889;28;20485;-61
2023/01/03 06:07:19;;;;;;;35.58;22.15;;;1.80;99.90;;;;;;5053094;28;20029;-60
2023/01/03 06:09:44;;;;;;;41.90;24.90;;;1.70;99.90;;;;;;5052562;28;20048;-60
2023/01/03 06:12:10;;;;;;;42.47;27.20;;;1.80;99.90;;;;;;5053174;28;20096;-60
2023/01/03 06:14:36;;;;;;;41.13;30.45;;;1.90;99.90;;;;;;5052723;28;20033;-61
2023/01/03 06:19:45;;;;;;;63.75;51.63;;;1.80;99.90;;;;;;5052458;28;20032;-60
2023/01/03 06:22:11;;;;;;;37.08;28.10;;;1.80;99.90;;;;;;5053128;28;20029;-60
2023/01/03 06:24:37;;;;;;;27.95;19.63;;;1.80;99.90;;;;;;5052196;28;20057;-60
2023/01/03 06:27:02;;;;;;;26.92;19.23;;;1.80;99.90;;;;;;5052457;28;20049;-61
2023/01/03 06:29:28;;;;;;;24.13;15.20;;;1.90;99.90;;;;;;5052491;28;20122;-60
2023/01/03 06:31:54;;;;;;;21.20;12.77;;;1.80;99.90;;;;;;5051151;28;20021;-60
2023/01/03 06:34:19;;;;;;;19.65;13.38;;;1.50;99.90;;;;;;5052494;28;20535;-60
2023/01/03 06:36:45;;;;;;;16.77;12.55;;;1.50;99.90;;;;;;5052446;28;20036;-61
2023/01/03 06:39:11;;;;;;;18.23;9.57;;;1.50;99.90;;;;;;5052331;28;20017;-61
2023/01/03 06:41:36;;;;;;;14.02;9.32;;;1.60;99.90;;;;;;5052102;28;20055;-61
2023/01/03 06:44:02;;;;;;;16.95;11.90;;;1.70;99.90;;;;;;5052246;28;20050;-60
2023/01/03 06:54:44;;;;;;;10.98;4.78;;;1.40;99.90;;;;;;5052030;28;20118;-60
2023/01/03 06:57:10;;;;;;;10.27;4.75;;;1.40;99.90;;;;;;5051953;28;20048;-63
2023/01/03 06:59:36;;;;;;;9.52;4.30;;;1.20;99.90;;;;;;5051924;28;20061;-61
2023/01/03 07:02:05;;;;;;;11.40;5.25;;;1.10;99.90;;;;;;5052058;28;20067;-60
2023/01/03 07:04:31;;;;;;;15.43;6.32;;;1.10;99.90;;;;;;5051626;28;20032;-60
2023/01/03 07:06:56;;;;;;;11.32;4.90;;;1.20;99.90;;;;;;5052417;28;20033;-61
2023/01/03 07:09:23;;;;;;;13.38;5.10;;;1.30;99.90;;;;;;5051553;28;20045;-60
2023/01/03 07:11:49;;;;;;;12.20;5.90;;;1.30;99.90;;;;;;5051943;28;20450;-61
2023/01/03 07:14:16;;;;;;;17.30;5.18;;;1.40;99.90;;;;;;5052346;28;20381;-60
2023/01/03 07:16:44;;;;;;;9.73;5.13;;;1.40;99.90;;;;;;5051937;28;20055;-60
2023/01/03 07:19:13;;;;;;;13.13;5.85;;;1.50;99.90;;;;;;5051981;28;20025;-60
2023/01/03 07:21:39;;;;;;;10.90;5.70;;;1.40;99.90;;;;;;5051865;28;20078;-60
2023/01/03 07:24:06;;;;;;;12.32;5.72;;;1.40;99.90;;;;;;5052109;28;20029;-60
2023/01/03 07:26:33;;;;;;;8.57;4.63;;;1.40;99.90;;;;;;5051438;28;20037;-61
2023/01/03 07:29:01;;;;;;;10.00;4.88;;;1.30;99.90;;;;;;5051845;28;20036;-60
2023/01/03 07:31:26;;;;;;;9.93;4.18;;;1.30;99.90;;;;;;5051686;28;20074;-60
2023/01/03 07:33:52;;;;;;;12.15;4.93;;;1.20;99.90;;;;;;5051853;28;20481;-61
2023/01/03 07:36:19;;;;;;;13.77;5.38;;;1.30;99.90;;;;;;5051654;28;20083;-60
2023/01/03 07:38:45;;;;;;;10.85;5.20;;;1.40;99.90;;;;;;5051683;28;20500;-60
2023/01/03 07:41:12;;;;;;;14.50;5.50;;;1.30;99.90;;;;;;5051439;28;20017;-61
2023/01/03 07:43:41;;;;;;;13.75;5.55;;;1.40;99.90;;;;;;5051129;28;20500;-60
2023/01/03 07:46:21;;;;;;;11.63;6.50;;;1.30;99.90;;;;;;5051662;28;20405;-59
2023/01/03 07:48:53;;;;;;;9.63;6.07;;;1.30;99.90;;;;;;5050518;28;20037;-60
2023/01/03 07:51:21;;;;;;;14.60;7.68;;;1.30;99.90;;;;;;5051404;28;20021;-59
2023/01/03 07:53:51;;;;;;;11.90;7.30;;;1.20;99.90;;;;;;5051518;28;20025;-61
2023/01/03 07:56:19;;;;;;;13.25;7.53;;;1.30;99.90;;;;;;5051028;28;20039;-61
2023/01/03 07:58:45;;;;;;;12.13;8.15;;;1.50;99.90;;;;;;5051981;28;20021;-61
2023/01/03 08:01:16;;;;;;;11.45;6.88;;;1.40;99.90;;;;;;5051618;28;20035;-61
2023/01/03 08:03:43;;;;;;;12.80;7.97;;;1.60;99.90;;;;;;5051130;28;20037;-62
2023/01/03 08:06:11;;;;;;;22.10;19.83;;;1.70;99.90;;;;;;5051081;28;20044;-61
2023/01/03 08:08:37;;;;;;;21.65;19.40;;;1.80;99.90;;;;;;5050505;28;20497;-61
2023/01/03 08:13:47;;;;;;;36.63;32.97;;;2.10;99.90;;;;;;5055402;28;20031;-61
2023/01/03 08:16:15;;;;;;;30.90;27.75;;;2.00;99.90;;;;;;5055042;28;20107;-62
2023/01/03 08:18:42;;;;;;;24.25;19.52;;;2.10;99.90;;;;;;5054784;28;20541;-61
2023/01/03 08:21:11;;;;;;;25.55;21.88;;;2.50;99.90;;;;;;5055339;28;20025;-62
2023/01/03 08:23:38;;;;;;;19.75;16.30;;;3.30;99.90;;;;;;5054609;28;20397;-62
2023/01/03 08:26:10;;;;;;;17.48;10.18;;;3.80;99.90;;;;;;5054695;28;20091;-62
2023/01/03 08:28:36;;;;;;;14.55;8.73;;;4.90;99.90;;;;;;5054858;28;20096;-62
2023/01/03 08:31:09;;;;;;;31.48;14.27;;;6.10;99.90;;;;;;5054905;28;20036;-62
2023/01/03 08:33:44;;;;;;;30.17;14.20;;;7.30;99.90;;;;;;5054753;28;20096;-62
2023/01/03 08:36:11;;;;;;;27.02;8.95;;;7.50;99.90;;;;;;5054535;28;20036;-62
2023/01/03 08:39:03;;;;;;;30.50;13.52;;;7.90;99.90;;;;;;5054501;28;20025;-63
2023/01/03 08:41:32;;;;;;;45.53;22.48;;;7.40;99.90;;;;;;5054657;28;20040;-62
2023/01/03 08:44:01;;;;;;;37.97;20.02;;;7.00;99.90;;;;;;5054336;28;20040;-63
2023/01/03 08:46:28;;;;;;;16.00;10.20;;;5.80;99.90;;;;;;5054852;28;20033;-66
2023/01/03 08:48:54;;;;;;;19.75;8.38;;;6.00;99.90;;;;;;5054562;28;20507;-62
2023/01/03 08:51:20;;;;;;;17.13;6.70;;;5.80;99.90;;;;;;5053817;28;20378;-61
2023/01/03 08:53:45;;;;;;;13.43;7.65;;;6.10;99.90;;;;;;5054181;28;20031;-62
2023/01/03 08:56:11;;;;;;;13.23;5.75;;;6.60;99.90;;;;;;5054282;28;20051;-61
2023/01/03 08:58:37;;;;;;;15.88;5.25;;;7.20;99.90;;;;;;5054625;28;20047;-61
2023/01/03 09:01:03;;;;;;;15.20;4.90;;;8.60;99.90;;;;;;5053393;28;20497;-62
2023/01/03 09:03:29;;;;;;;8.48;5.22;;;9.70;99.90;;;;;;5053672;28;20047;-62
2023/01/03 09:06:00;;;;;;;7.68;5.07;;;10.60;99.90;;;;;;5053688;28;20033;-61
2023/01/03 09:08:25;;;;;;;7.88;5.10;;;11.10;99.90;;;;;;5052796;28;20076;-62
2023/01/03 09:10:51;;;;;;;8.95;5.47;;;11.40;99.90;;;;;;5054116;28;20098;-61
2023/01/03 09:13:17;;;;;;;8.13;4.88;;;11.90;99.90;;;;;;5054108;28;20501;-61
2023/01/03 09:15:42;;;;;;;6.50;4.85;;;12.50;99.90;;;;;;5054053;28;20052;-61
2023/01/03 09:18:08;;;;;;;8.27;3.75;;;12.40;99.90;;;;;;5054209;28;20090;-61
2023/01/03 09:20:34;;;;;;;6.88;3.20;;;12.50;99.90;;;;;;5054070;28;20025;-61
2023/01/03 09:23:00;;;;;;;5.20;2.90;;;13.20;99.90;;;;;;5053797;28;20036;-62
2023/01/03 09:25:25;;;;;;;4.65;2.80;;;13.90;99.90;;;;;;5053764;28;20036;-62
2023/01/03 09:27:51;;;;;;;4.07;3.00;;;14.10;99.90;;;;;;5054511;28;20092;-61
2023/01/03 09:30:18;;;;;;;5.45;3.20;;;14.20;99.90;;;;;;5054090;28;20112;-62
2023/01/03 09:32:44;;;;;;;6.28;3.10;;;14.60;99.90;;;;;;5053902;28;20025;-62
2023/01/03 09:35:10;;;;;;;4.78;2.88;;;14.70;99.90;;;;;;5053646;28;20024;-61
2023/01/03 09:37:36;;;;;;;4.57;3.28;;;14.80;99.90;;;;;;5053658;28;20029;-62
2023/01/03 09:40:03;;;;;;;7.57;3.47;;;14.60;99.90;;;;;;5054022;28;20024;-62
2023/01/03 09:45:24;;;;;;;4.93;3.40;;;15.70;99.90;;;;;;5054051;28;20082;-61
2023/01/03 09:47:50;;;;;;;7.20;3.17;;;15.90;99.90;;;;;;5053665;28;20074;-62
2023/01/03 09:50:29;;;;;;;7.30;3.30;;;15.70;99.90;;;;;;5053016;28;20033;-63
2023/01/03 10:04:48;;;;;;;4.78;2.42;;;17.10;99.90;;;;;;5053454;28;20148;-62
2023/01/03 10:07:50;;;;;;;4.00;2.13;;;17.70;99.90;;;;;;5052874;28;20040;-62
2023/01/03 10:10:18;;;;;;;5.88;2.13;;;17.50;99.90;;;;;;5052381;28;20040;-62
2023/01/03 10:13:23;;;;;;;3.78;2.03;;;18.80;99.90;;;;;;5052823;28;20120;-62
2023/01/03 10:16:03;;;;;;;5.57;2.30;;;18.40;99.90;;;;;;5050694;28;20033;-62
2023/01/03 10:18:51;;;;;;;3.42;2.25;;;17.90;99.90;;;;;;5052725;28;20028;-63
2023/01/03 10:21:32;;;;;;;3.97;2.17;;;18.70;99.90;;;;;;5052310;28;20035;-62
2023/01/03 10:23:58;;;;;;;4.55;2.10;;;18.70;99.90;;;;;;5052980;28;20029;-62
2023/01/03 10:26:25;;;;;;;4.32;2.28;;;18.70;99.90;;;;;;5052550;28;20072;-62
2023/01/03 10:28:51;;;;;;;3.85;2.20;;;19.10;99.90;;;;;;5052497;28;20478;-62
2023/01/03 10:31:55;;;;;;;4.72;2.45;;;19.90;99.90;;;;;;5052385;28;20028;-62
2023/01/03 10:34:23;;;;;;;3.40;2.00;;;19.40;99.90;;;;;;5029840;28;20147;-63
2023/01/03 10:36:48;;;;;;;4.95;2.35;;;19.60;99.90;;;;;;5030428;28;20430;-62
2023/01/03 10:39:28;;;;;;;4.15;2.28;;;18.50;99.90;;;;;;5030511;28;20034;-62
2023/01/03 10:41:57;;;;;;;4.70;1.85;;;18.50;99.90;;;;;;5030996;28;20510;-62
2023/01/03 10:44:28;;;;;;;5.13;2.00;;;19.10;99.90;;;;;;5030028;28;20030;-62
2023/01/03 10:47:01;;;;;;;7.10;2.63;;;19.00;99.90;;;;;;5030406;28;20116;-63
2023/01/03 10:49:30;;;;;;;5.63;2.10;;;19.60;99.90;;;;;;5029772;28;20056;-62
2023/01/03 10:52:05;;;;;;;4.70;1.88;;;20.10;99.90;;;;;;5030273;28;20474;-62
2023/01/03 10:54:50;;;;;;;3.83;2.30;;;20.30;99.90;;;;;;5030123;28;20021;-62
2023/01/03 10:57:38;;;;;;;4.63;2.22;;;21.00;99.90;;;;;;5030084;28;20040;-62
2023/01/03 11:00:27;;;;;;;5.93;1.88;;;20.90;99.90;;;;;;5030280;28;20029;-62
2023/01/03 11:02:54;;;;;;;6.22;1.77;;;21.60;99.90;;;;;;5030071;28;20049;-62
2023/01/03 11:05:25;;;;;;;4.72;1.95;;;20.90;99.90;;;;;;5029737;28;20148;-62
2023/01/03 11:07:56;;;;;;;2.95;1.85;;;21.00;99.90;;;;;;5036754;28;20047;-64
2023/01/03 11:10:24;;;;;;;5.10;1.75;;;20.20;99.90;;;;;;5051857;28;20048;-62
2023/01/03 11:12:50;;;;;;;6.35;1.90;;;20.10;99.90;;;;;;5051890;28;20037;-63
2023/01/03 11:15:24;;;;;;;6.95;2.08;;;22.70;99.90;;;;;;5052420;28;20112;-62
2023/01/03 11:18:04;;;;;;;4.68;1.60;;;22.30;99.90;;;;;;5051421;28;20032;-63
2023/01/03 11:20:55;;;;;;;6.43;1.90;;;21.00;99.90;;;;;;5051445;28;20033;-62
2023/01/03 11:23:57;;;;;;;6.57;1.67;;;20.20;99.90;;;;;;5051807;28;20029;-62
2023/01/03 11:26:41;;;;;;;5.82;1.90;;;21.30;99.90;;;;;;5052263;28;20500;-63
2023/01/03 11:29:22;;;;;;;5.55;1.65;;;20.50;99.90;;;;;;5052044;28;20032;-62
2023/01/03 11:32:00;;;;;;;7.25;2.03;;;21.70;99.90;;;;;;5051541;28;20079;-62
2023/01/03 11:34:25;;;;;;;6.30;1.60;;;23.30;99.90;;;;;;5051831;28;20028;-63
2023/01/03 11:37:09;;;;;;;5.07;1.90;;;22.70;99.90;;;;;;5051704;28;20029;-63
2023/01/03 11:39:54;;;;;;;;;;;22.20;99.90;;;;;;5052644;28;20040;-62
2023/01/03 11:42:38;;;;;;;5.30;2.08;;;22.40;99.90;;;;;;5051501;28;20361;-62
2023/01/03 11:45:25;;;;;;;8.05;2.30;;;22.70;99.90;;;;;;5051895;28;20040;-64
2023/01/03 11:48:27;;;;;;;6.45;1.50;;;21.80;99.90;;;;;;5055890;28;20072;-62
2023/01/03 11:51:12;;;;;;;9.00;2.08;;;21.90;99.90;;;;;;5054691;28;20041;-62
2023/01/03 11:54:00;;;;;;;6.78;2.13;;;21.70;99.90;;;;;;5055362;28;20032;-60
2023/01/03 11:56:31;;;;;;;8.52;1.70;;;22.20;99.90;;;;;;5055337;28;20040;-62
2023/01/03 11:59:12;;;;;;;5.78;1.50;;;20.20;99.90;;;;;;5055157;28;21109;-60
2023/01/03 12:01:50;;;;;;;6.22;2.00;;;20.80;99.90;;;;;;5055273;28;20063;-61
2023/01/03 12:04:33;;;;;;;8.30;1.83;;;20.90;99.90;;;;;;5054999;28;20074;-61
2023/01/03 12:07:18;;;;;;;5.57;1.73;;;20.90;99.90;;;;;;5055169;28;20131;-61
2023/01/03 12:10:09;;;;;;;5.88;2.17;;;20.60;99.90;;;;;;5054804;28;20032;-62
2023/01/03 12:12:46;;;;;;;7.47;1.80;;;19.10;99.90;;;;;;5054842;28;20033;-62
2023/01/03 12:15:17;;;;;;;6.80;1.90;;;19.10;99.90;;;;;;5054536;28;20017;-62
2023/01/03 12:17:56;;;;;;;8.75;2.08;;;19.30;99.90;;;;;;5054915;28;20029;-62
2023/01/03 12:20:30;;;;;;;6.28;1.40;;;18.90;99.90;;;;;;5053746;28;20493;-61
2023/01/03 12:23:05;;;;;;;;;;;18.70;99.90;;;;;;5055095;28;20447;-60
2023/01/03 12:25:36;;;;;;;7.25;1.70;;;17.10;99.90;;;;;;5051548;28;19924;-60
2023/01/03 12:28:08;;;;;;;8.70;1.90;;;17.80;99.90;;;;;;5053762;28;20482;-60
2023/01/03 12:30:40;;;;;;;6.65;1.60;;;16.90;99.90;;;;;;5054431;28;20029;-62
2023/01/03 12:33:29;;;;;;;9.73;2.50;;;16.50;99.90;;;;;;5053788;28;20488;-63
2023/01/03 12:36:20;;;;;;;7.03;2.30;;;16.70;99.90;;;;;;5054249;28;20017;-62
2023/01/03 12:39:02;;;;;;;8.10;2.05;;;16.50;99.90;;;;;;5054499;28;20060;-63
2023/01/03 12:41:37;;;;;;;8.57;3.88;;;16.30;99.90;;;;;;5054555;28;20025;-62
2023/01/03 12:44:11;;;;;;;6.38;2.20;;;16.50;99.90;;;;;;5054342;28;20021;-63
2023/01/03 12:46:44;;;;;;;17.42;7.90;;;16.90;99.90;;;;;;5054339;28;20029;-63
2023/01/03 12:49:47;;;;;;;6.97;2.70;;;16.00;99.90;;;;;;5053472;28;20021;-62
2023/01/03 12:52:17;;;;;;;4.45;1.80;;;17.00;99.90;;;;;;5032330;28;20142;-62
2023/01/03 12:54:47;;;;;;;37.72;26.00;;;17.60;99.90;;;;;;5032934;28;20026;-63
2023/01/03 12:57:32;;;;;;;7.05;1.98;;;17.20;99.90;;;;;;5032868;28;20045;-63
2023/01/03 13:00:16;;;;;;;7.80;1.80;;;17.20;99.90;;;;;;5031919;28;20025;-62
2023/01/03 13:02:57;;;;;;;9.30;2.63;;;17.40;99.90;;;;;;5032613;28;20135;-63
2023/01/03 13:05:41;;;;;;;57.83;42.03;;;17.70;99.90;;;;;;5032351;28;20042;-63
2023/01/03 13:08:43;;;;;;;4.25;1.50;;;17.70;99.90;;;;;;5032222;28;20029;-62
2023/01/03 13:11:37;;;;;;;6.97;1.88;;;17.60;99.90;;;;;;5032885;28;20590;-62
2023/01/03 13:14:13;;;;;;;7.10;1.65;;;17.70;99.90;;;;;;5030038;28;20046;-62
2023/01/03 13:16:41;;;;;;;3.75;1.20;;;17.30;99.90;;;;;;5031661;28;20157;-62
2023/01/03 13:19:21;;;;;;;5.28;1.38;;;16.50;99.90;;;;;;5031973;28;20026;-62
2023/01/03 13:21:53;;;;;;;6.43;1.52;;;16.20;99.90;;;;;;5032874;28;20042;-63
2023/01/03 13:24:46;;;;;;;4.85;1.63;;;16.20;99.90;;;;;;5032358;28;20040;-62
2023/01/03 13:27:21;;;;;;;4.78;1.40;;;15.80;99.90;;;;;;5029214;28;20275;-62
2023/01/03 13:29:50;;;;;;;6.55;1.90;;;16.10;99.90;;;;;;5050210;28;20051;-62
2023/01/03 13:32:21;;;;;;;6.72;1.60;;;16.10;99.90;;;;;;5054023;28;20043;-62
2023/01/03 13:34:53;;;;;;;6.65;1.70;;;16.30;99.90;;;;;;5053816;28;20016;-63
2023/01/03 13:37:21;;;;;;;6.13;1.60;;;16.10;99.90;;;;;;5054330;28;20025;-62
2023/01/03 13:39:50;;;;;;;6.90;1.73;;;16.00;99.90;;;;;;5053909;28;20499;-63
2023/01/03 13:42:37;;;;;;;3.90;1.52;;;15.90;99.90;;;;;;5054080;28;20500;-62
2023/01/03 13:45:29;;;;;;;7.40;1.70;;;15.80;99.90;;;;;;5053461;28;20032;-63
2023/01/03 13:47:56;;;;;;;6.20;1.63;;;15.50;99.90;;;;;;5031526;28;20049;-63
2023/01/03 13:50:32;;;;;;;4.95;1.40;;;15.90;99.90;;;;;;5032034;28;20160;-63
2023/01/03 13:53:10;;;;;;;7.35;1.75;;;16.00;99.90;;;;;;5031259;28;20034;-62
2023/01/03 13:55:37;;;;;;;5.85;1.65;;;15.70;99.90;;;;;;5031659;28;20144;-62
2023/01/03 13:58:23;;;;;;;6.38;1.50;;;15.80;99.90;;;;;;5030684;28;20557;-63
2023/01/03 14:00:51;;;;;;;5.13;1.55;;;15.80;99.90;;;;;;4992164;28;20038;-62
2023/01/03 14:03:25;;;;;;;5.10;1.58;;;16.00;99.90;;;;;;4991962;28;20038;-62
2023/01/03 14:06:17;;;;;;;7.68;1.88;;;16.00;99.90;;;;;;4991550;28;20057;-63
2023/01/03 14:09:09;;;;;;;7.03;1.80;;;15.80;99.90;;;;;;4990997;28;20414;-62
2023/01/03 14:11:56;;;;;;;13.77;11.50;;;15.90;99.90;;;;;;4991011;28;20602;-62